createdAt,value
2019-04-23T00:01:49.260Z,100967.44
2019-04-23T00:04:19.655Z,100964.30
2019-04-23T00:06:48.856Z,100969.50
2019-04-23T00:09:22.345Z,100966.80
2019-04-23T00:11:39.811Z,100962.50
2019-04-23T00:14:13.405Z,100971.57
2019-04-23T00:16:51.159Z,100970.53
2019-04-23T00:19:01.077Z,100970.83
2019-04-23T00:24:12.017Z,100964.48
2019-04-23T00:29:06.666Z,100953.88
2019-04-23T00:31:34.998Z,100960.75
2019-04-23T00:33:56.779Z,100954.91
2019-04-23T00:36:27.777Z,100962.09
2019-04-23T00:39:06.313Z,100950.44
2019-04-23T00:41:15.970Z,100950.77
2019-04-23T00:43:52.730Z,100953.66
2019-04-23T00:46:18.466Z,100951.07
2019-04-23T00:48:52.251Z,100947.83
2019-04-23T00:51:02.959Z,100955.73
2019-04-23T00:53:32.662Z,100949.69
2019-04-23T00:56:19.424Z,100945.89
2019-04-23T00:58:38.027Z,100946.50
2019-04-23T01:01:00.382Z,100955.86
2019-04-23T01:03:42.213Z,100951.70
2019-04-23T01:05:52.296Z,100957.28
2019-04-23T01:08:28.505Z,100953.97
2019-04-23T01:10:56.473Z,100950.20
2019-04-23T01:14:24.559Z,100955.00
2019-04-23T01:15:57.719Z,100958.53
2019-04-23T01:18:32.602Z,100956.22
2019-04-23T01:20:53.743Z,100950.59
2019-04-23T01:23:11.577Z,100956.18
2019-04-23T01:25:52.196Z,100948.25
2019-04-23T01:28:35.623Z,100946.72
2019-04-23T01:36:09.694Z,100945.61
2019-04-23T01:38:30.963Z,100941.52
2019-04-23T01:41:09.544Z,100940.17
2019-04-23T01:43:23.445Z,100937.63
2019-04-23T01:45:40.932Z,100932.44
2019-04-23T01:48:12.878Z,100934.07
2019-04-23T01:50:48.725Z,100932.03
2019-04-23T01:53:14.989Z,100931.45
2019-04-23T01:55:44.954Z,100930.84
2019-04-23T02:05:39.718Z,100918.35
2019-04-23T02:08:06.471Z,100914.47
2019-04-23T02:10:53.730Z,100911.34
2019-04-23T02:20:39.833Z,100905.88
2019-04-23T02:23:21.417Z,100895.66
2019-04-23T02:25:53.812Z,100897.61
2019-04-23T02:28:25.757Z,100879.41
2019-04-23T02:31:03.808Z,100879.41
2019-04-23T02:35:42.678Z,100897.18
2019-04-23T02:40:46.767Z,100891.20
2019-04-23T02:43:15.264Z,100895.85
2019-04-23T02:45:39.230Z,100885.82
2019-04-23T02:52:57.568Z,100884.30
2019-04-23T02:55:31.448Z,100882.36
2019-04-23T02:57:56.260Z,100885.92
2019-04-23T03:00:27.763Z,100888.98
2019-04-23T03:02:56.869Z,100888.98
2019-04-23T03:10:11.803Z,100881.03
2019-04-23T03:12:42.758Z,100868.36
2019-04-23T03:15:44.686Z,100870.87
2019-04-23T03:18:04.732Z,100874.17
2019-04-23T03:23:03.609Z,100867.42
2019-04-23T03:25:49.602Z,100873.53
2019-04-23T03:27:58.900Z,100862.79
2019-04-23T03:36:02.131Z,100853.17
2019-04-23T03:37:58.583Z,100861.05
2019-04-23T03:43:04.378Z,100851.13
2019-04-23T03:47:44.760Z,100841.84
2019-04-23T03:50:23.677Z,100849.73
2019-04-23T03:55:28.091Z,100842.22
2019-04-23T04:00:22.438Z,100843.45
2019-04-23T04:02:40.418Z,100838.45
2019-04-23T04:04:53.648Z,100838.45
2019-04-23T04:07:35.815Z,100847.30
2019-04-23T04:12:29.406Z,100837.95
2019-04-23T04:15:03.814Z,100836.28
2019-04-23T04:17:16.043Z,100846.27
2019-04-23T04:22:18.258Z,100846.86
2019-04-23T04:24:40.235Z,100846.86
2019-04-23T04:32:00.781Z,100837.41
2019-04-23T04:34:55.576Z,100844.23
2019-04-23T04:37:27.258Z,100844.23
2019-04-23T04:39:26.590Z,100833.36
2019-04-23T04:52:01.089Z,100825.26
2019-04-23T04:56:42.694Z,100825.09
2019-04-23T05:04:02.433Z,100825.62
2019-04-23T05:06:37.494Z,100830.14
2019-04-23T05:09:02.160Z,100835.54
2019-04-23T05:11:44.271Z,100828.33
2019-04-23T05:13:54.909Z,100832.23
2019-04-23T05:16:21.623Z,100835.83
2019-04-23T05:26:19.298Z,100829.77
2019-04-23T05:28:48.912Z,100831.66
2019-04-23T05:31:08.597Z,100827.38
2019-04-23T05:33:57.224Z,100823.80
2019-04-23T05:38:51.086Z,100827.14
2019-04-23T05:41:07.600Z,100816.36
2019-04-23T05:43:28.002Z,100826.59
2019-04-23T05:45:56.633Z,100819.31
2019-04-23T05:53:21.116Z,100816.00
2019-04-23T05:55:47.614Z,100820.70
2019-04-23T05:58:16.647Z,100817.05
2019-04-23T06:00:48.095Z,100822.69
2019-04-23T06:03:14.830Z,100819.67
2019-04-23T06:05:44.853Z,100818.20
2019-04-23T06:08:25.553Z,100811.24
2019-04-23T06:10:36.297Z,100810.83
2019-04-23T06:12:59.662Z,100798.55
2019-04-23T06:15:32.206Z,100801.48
2019-04-23T06:18:02.254Z,100810.55
2019-04-23T06:20:28.752Z,100805.63
2019-04-23T06:23:01.057Z,100819.16
2019-04-23T06:25:47.811Z,100824.80
2019-04-23T06:30:19.243Z,100797.89
2019-04-23T06:32:42.837Z,100806.63
2019-04-23T06:35:11.830Z,100812.59
2019-04-23T06:38:04.789Z,100812.59
2019-04-23T06:40:08.699Z,100790.36
2019-04-23T06:42:34.675Z,100811.06
2019-04-23T06:44:59.965Z,100811.06
2019-04-23T06:47:28.932Z,100800.77
2019-04-23T06:52:21.808Z,100797.61
2019-04-23T06:55:01.441Z,100800.47
2019-04-23T06:57:22.444Z,100787.23
2019-04-23T06:59:52.631Z,100789.20
2019-04-23T07:02:18.489Z,100793.70
2019-04-23T07:05:06.564Z,100789.86
2019-04-23T07:07:41.029Z,100780.91
2019-04-23T07:09:38.944Z,100771.69
2019-04-23T07:12:08.677Z,100770.84
2019-04-23T07:14:44.061Z,100773.78
2019-04-23T07:17:03.858Z,100769.45
2019-04-23T07:19:39.130Z,100762.72
2019-04-23T07:22:08.259Z,100760.08
2019-04-23T07:24:32.862Z,100756.67
2019-04-23T07:26:45.296Z,100751.31
2019-04-23T07:29:27.631Z,100752.61
2019-04-23T07:31:54.545Z,100749.31
2019-04-23T07:34:20.361Z,100744.04
2019-04-23T07:36:47.982Z,100749.30
2019-04-23T07:44:29.788Z,100745.95
2019-04-23T07:47:11.679Z,100737.58
2019-04-23T07:49:30.819Z,100732.94
2019-04-23T07:52:04.802Z,100730.94
2019-04-23T07:57:02.584Z,100715.06
2019-04-23T07:59:27.309Z,100729.02
2019-04-23T08:01:49.599Z,100723.36
2019-04-23T08:04:18.275Z,100716.12
2019-04-23T08:06:47.694Z,100715.34
2019-04-23T08:09:10.931Z,100713.22
2019-04-23T08:11:42.682Z,100711.05
2019-04-23T08:14:02.080Z,100701.72
2019-04-23T08:16:33.935Z,100712.41
2019-04-23T08:19:14.211Z,100709.26
2019-04-23T08:24:17.011Z,100699.13
2019-04-23T08:26:50.293Z,100709.55
2019-04-23T08:29:20.207Z,100706.23
2019-04-23T08:31:51.998Z,100694.00
2019-04-23T08:34:25.558Z,100699.69
2019-04-23T08:36:51.860Z,100692.39
2019-04-23T08:39:12.070Z,100693.50
2019-04-23T08:41:46.125Z,100691.87
2019-04-23T08:44:25.436Z,100694.87
2019-04-23T08:47:03.263Z,100685.41
2019-04-23T08:49:36.440Z,100679.32
2019-04-23T08:52:02.470Z,100677.77
2019-04-23T08:54:42.887Z,100680.06
2019-04-23T08:57:04.073Z,100667.20
2019-04-23T08:59:37.245Z,100664.67
2019-04-23T09:02:07.181Z,100670.52
2019-04-23T09:04:23.673Z,100667.56
2019-04-23T09:07:00.239Z,100659.73
2019-04-23T09:09:24.938Z,100671.86
2019-04-23T09:14:09.004Z,100659.56
2019-04-23T09:16:44.679Z,100654.63
2019-04-23T09:21:37.384Z,100641.47
2019-04-23T09:24:05.794Z,100637.70
2019-04-23T09:26:26.203Z,100637.95
2019-04-23T09:29:01.138Z,100632.69
2019-04-23T09:31:55.387Z,100635.22
2019-04-23T09:34:09.766Z,100626.61
2019-04-23T09:37:00.143Z,100621.18
2019-04-23T09:39:27.740Z,100626.67
2019-04-23T09:42:03.328Z,100615.98
2019-04-23T09:47:30.057Z,100608.48
2019-04-23T09:49:58.946Z,100607.98
2019-04-23T09:52:20.342Z,100612.74
2019-04-23T09:54:49.777Z,100601.71
2019-04-23T09:57:13.420Z,100598.28
2019-04-23T09:59:43.059Z,100597.30
2019-04-23T10:02:01.040Z,100597.48
2019-04-23T10:04:23.201Z,100597.16
2019-04-23T10:06:39.249Z,100594.59
2019-04-23T10:09:10.144Z,100586.06
2019-04-23T10:11:34.649Z,100590.99
2019-04-23T10:14:00.828Z,100581.77
2019-04-23T10:16:30.278Z,100578.33
2019-04-23T10:18:55.150Z,100569.71
2019-04-23T10:21:21.475Z,100567.93
2019-04-23T10:23:47.604Z,100570.05
2019-04-23T10:26:14.249Z,100573.81
2019-04-23T10:28:42.255Z,100562.52
2019-04-23T10:31:09.059Z,100560.58
2019-04-23T10:33:34.896Z,100545.66
2019-04-23T10:36:04.816Z,100541.91
2019-04-23T10:38:30.194Z,100537.84
2019-04-23T10:40:56.281Z,100548.16
2019-04-23T10:43:22.688Z,100545.91
2019-04-23T10:46:07.830Z,100541.89
2019-04-23T10:51:25.147Z,100529.23
2019-04-23T10:53:42.770Z,100526.39
2019-04-23T10:56:21.432Z,100526.56
2019-04-23T10:58:38.551Z,100525.95
2019-04-23T11:01:18.692Z,100523.92
2019-04-23T11:03:48.685Z,100517.64
2019-04-23T11:06:17.614Z,100523.84
2019-04-23T11:08:38.335Z,100521.85
2019-04-23T11:11:09.302Z,100518.97
2019-04-23T11:13:38.349Z,100522.23
2019-04-23T11:18:48.813Z,100518.69
2019-04-23T11:21:05.349Z,100525.29
2019-04-23T11:23:29.479Z,100511.42
2019-04-23T11:25:55.897Z,100507.05
2019-04-23T11:28:27.521Z,100521.07
2019-04-23T11:31:03.475Z,100509.59
2019-04-23T11:36:22.164Z,100503.59
2019-04-23T11:38:50.781Z,100494.44
2019-04-23T11:40:43.606Z,100488.16
2019-04-23T11:43:20.465Z,100494.09
2019-04-23T11:48:33.006Z,100475.91
2019-04-23T11:51:24.124Z,100462.46
2019-04-23T11:53:18.446Z,100467.94
2019-04-23T11:55:47.645Z,100472.88
2019-04-23T12:00:46.383Z,100455.45
2019-04-23T12:02:57.948Z,100446.87
2019-04-23T12:05:58.254Z,100448.03
2019-04-23T12:08:25.127Z,100451.15
2019-04-23T12:13:21.451Z,100451.55
2019-04-23T12:18:10.056Z,100443.01
2019-04-23T12:20:37.932Z,100441.14
2019-04-23T12:23:19.368Z,100429.56
2019-04-23T12:25:36.167Z,100432.18
2019-04-23T12:27:59.699Z,100421.06
2019-04-23T12:30:36.219Z,100441.95
2019-04-23T12:33:06.658Z,100438.44
2019-04-23T12:35:22.446Z,100434.52
2019-04-23T12:40:52.182Z,100427.11
2019-04-23T12:45:43.879Z,100422.72
2019-04-23T12:48:09.761Z,100419.54
2019-04-23T12:55:31.934Z,100396.04
2019-04-23T13:05:19.116Z,100383.17
2019-04-23T13:07:43.747Z,100386.74
2019-04-23T13:10:14.893Z,100388.65
2019-04-23T13:15:11.416Z,100383.93
2019-04-23T13:25:09.518Z,100359.03
2019-04-23T13:27:57.143Z,100356.31
2019-04-23T13:30:27.927Z,100342.06
2019-04-23T13:32:50.202Z,100348.06
2019-04-23T13:35:28.048Z,100345.89
2019-04-23T13:37:47.341Z,100333.48
2019-04-23T13:40:09.534Z,100326.68
2019-04-23T13:42:52.403Z,100324.80
2019-04-23T13:45:04.956Z,100319.55
2019-04-23T13:47:47.229Z,100319.85
2019-04-23T13:50:07.864Z,100315.44
2019-04-23T13:55:04.483Z,100306.69
2019-04-23T13:59:53.452Z,100293.52
2019-04-23T14:02:30.004Z,100296.81
2019-04-23T14:04:59.720Z,100306.43
2019-04-23T14:07:30.389Z,100297.93
2019-04-23T14:12:22.233Z,100292.72
2019-04-23T14:19:45.270Z,100296.12
2019-04-23T14:22:31.529Z,100282.16
2019-04-23T14:24:53.149Z,100275.88
2019-04-23T14:27:18.131Z,100285.95
2019-04-23T14:32:08.494Z,100275.09
2019-04-23T14:34:35.281Z,100269.08
2019-04-23T14:39:32.138Z,100264.45
2019-04-23T14:42:01.149Z,100264.94
2019-04-23T14:44:18.996Z,100264.11
2019-04-23T14:47:03.461Z,100256.20
2019-04-23T14:49:30.934Z,100263.22
2019-04-23T14:52:02.463Z,100249.88
2019-04-23T14:54:34.681Z,100243.59
2019-04-23T14:56:58.824Z,100245.25
2019-04-23T14:59:29.149Z,100236.48
2019-04-23T15:01:48.970Z,100236.50
2019-04-23T15:04:10.940Z,100238.98
2019-04-23T15:06:51.612Z,100237.32
2019-04-23T15:11:44.115Z,100220.09
2019-04-23T15:14:10.098Z,100227.16
2019-04-23T15:16:39.677Z,100224.67
2019-04-23T15:23:10.706Z,100221.14
2019-04-23T15:28:57.337Z,100215.88
2019-04-23T15:39:19.161Z,100214.02
2019-04-23T15:41:40.487Z,100206.28
2019-04-23T15:44:05.005Z,100203.02
2019-04-23T15:46:32.694Z,100196.98
2019-04-23T15:53:48.557Z,100194.73
2019-04-23T15:56:26.848Z,100186.50
2019-04-23T15:58:56.180Z,100180.97
2019-04-23T16:01:21.251Z,100184.51
2019-04-23T16:03:17.534Z,100172.20
2019-04-23T16:05:44.627Z,100175.22
2019-04-23T16:08:48.096Z,100174.91
2019-04-23T16:11:15.626Z,100171.12
2019-04-23T16:13:53.380Z,100173.53
2019-04-23T16:16:07.697Z,100175.70
2019-04-23T16:18:37.364Z,100172.69
2019-04-23T16:21:14.627Z,100170.24
2019-04-23T16:23:28.076Z,100173.50
2019-04-23T16:26:01.863Z,100183.06
2019-04-23T16:28:35.563Z,100165.30
2019-04-23T16:31:00.872Z,100170.48
2019-04-23T16:33:16.280Z,100168.27
2019-04-23T16:40:47.756Z,100174.83
2019-04-23T16:43:23.120Z,100166.29
2019-04-23T16:45:52.672Z,100159.22
2019-04-23T16:48:33.234Z,100158.36
2019-04-23T16:51:06.186Z,100160.01
2019-04-23T16:53:21.489Z,100160.53
2019-04-23T17:03:13.021Z,100159.70
2019-04-23T17:05:46.558Z,100149.00
2019-04-23T17:08:32.579Z,100144.61
2019-04-23T17:10:36.618Z,100149.22
2019-04-23T17:13:04.729Z,100153.00
2019-04-23T17:15:40.795Z,100143.91
2019-04-23T17:18:03.540Z,100137.41
2019-04-23T17:20:30.946Z,100144.70
2019-04-23T17:22:56.347Z,100137.98
2019-04-23T17:25:20.435Z,100140.42
2019-04-23T17:27:58.962Z,100139.30
2019-04-23T17:30:19.918Z,100147.48
2019-04-23T17:32:57.240Z,100136.16
2019-04-23T17:35:29.757Z,100140.81
2019-04-23T17:38:07.683Z,100140.69
2019-04-23T17:40:30.645Z,100141.70
2019-04-23T17:43:04.668Z,100131.89
2019-04-23T17:45:32.383Z,100140.62
2019-04-23T17:48:08.754Z,100135.09
2019-04-23T17:50:31.918Z,100132.02
2019-04-23T17:55:29.756Z,100146.02
2019-04-23T17:58:01.136Z,100141.93
2019-04-23T18:00:34.076Z,100137.84
2019-04-23T18:03:01.199Z,100145.44
2019-04-23T18:05:36.735Z,100133.00
2019-04-23T18:07:55.987Z,100142.45
2019-04-23T18:15:10.644Z,100138.30
2019-04-23T18:17:41.303Z,100136.45
2019-04-23T18:20:16.335Z,100136.41
2019-04-23T18:22:48.777Z,100139.30
2019-04-23T18:25:17.075Z,100142.31
2019-04-23T18:27:47.096Z,100142.58
2019-04-23T18:30:23.143Z,100137.36
2019-04-23T18:35:53.396Z,100140.38
2019-04-23T18:38:04.891Z,100148.86
2019-04-23T18:40:38.768Z,100145.84
2019-04-23T18:43:15.258Z,100146.42
2019-04-23T18:45:41.466Z,100151.11
2019-04-23T18:48:34.373Z,100148.53
2019-04-23T18:53:22.737Z,100146.70
2019-04-23T18:55:54.429Z,100141.03
2019-04-23T18:58:12.173Z,100147.56
2019-04-23T19:01:01.954Z,100146.20
2019-04-23T19:03:23.144Z,100151.38
2019-04-23T19:05:58.681Z,100149.42
2019-04-23T19:08:39.189Z,100147.08
2019-04-23T19:11:09.041Z,100148.73
2019-04-23T19:13:42.133Z,100135.11
2019-04-23T19:15:53.606Z,100140.62
2019-04-23T19:25:51.454Z,100144.03
2019-04-23T19:28:34.639Z,100142.97
2019-04-23T19:31:07.413Z,100149.52
2019-04-23T19:33:50.352Z,100152.14
2019-04-23T19:38:31.549Z,100150.28
2019-04-23T19:46:00.659Z,100154.80
2019-04-23T19:48:27.016Z,100159.09
2019-04-23T19:53:27.786Z,100163.04
2019-04-23T19:56:00.526Z,100161.22
2019-04-23T19:58:13.843Z,100168.22
2019-04-23T20:01:01.913Z,100170.27
2019-04-23T20:05:41.082Z,100159.24
2019-04-23T20:10:35.150Z,100163.32
2019-04-23T20:12:59.124Z,100169.87
2019-04-23T20:15:42.748Z,100164.66
2019-04-23T20:17:54.208Z,100164.19
2019-04-23T20:20:25.169Z,100163.77
2019-04-23T20:25:56.612Z,100152.89
2019-04-23T20:27:58.350Z,100165.16
2019-04-23T20:33:53.054Z,100158.48
2019-04-23T20:35:43.687Z,100160.01
2019-04-23T20:38:25.570Z,100157.55
2019-04-23T20:40:49.079Z,100157.29
2019-04-23T20:42:58.752Z,100154.44
2019-04-23T20:45:41.033Z,100149.48
2019-04-23T20:50:34.537Z,100148.09
2019-04-23T20:52:56.370Z,100154.60
2019-04-23T20:55:44.255Z,100150.36
2019-04-23T20:58:14.257Z,100146.86
2019-04-23T21:00:33.975Z,100138.66
2019-04-23T21:03:28.934Z,100138.02
2019-04-23T21:05:22.771Z,100133.38
2019-04-23T21:10:35.778Z,100140.86
2019-04-23T21:13:06.842Z,100136.27
2019-04-23T21:15:30.986Z,100126.77
2019-04-23T21:17:59.577Z,100135.80
2019-04-23T21:20:27.724Z,100134.44
2019-04-23T21:25:22.823Z,100125.41
2019-04-23T21:27:55.320Z,100114.89
2019-04-23T21:30:53.573Z,100117.84
2019-04-23T21:33:05.409Z,100116.95
2019-04-23T21:36:03.199Z,100127.60
2019-04-23T21:38:46.422Z,100123.56
2019-04-23T21:41:05.521Z,100118.67
2019-04-23T21:44:00.550Z,100121.41
2019-04-23T21:46:15.244Z,100112.34
2019-04-23T21:48:44.054Z,100109.11
2019-04-23T21:51:09.844Z,100107.97
2019-04-23T21:53:36.250Z,100108.66
2019-04-23T21:58:25.913Z,100107.98
2019-04-23T22:00:59.350Z,100113.52
2019-04-23T22:03:35.667Z,100114.36
2019-04-23T22:06:01.742Z,100111.69
2019-04-23T22:08:27.157Z,100106.25
2019-04-23T22:11:00.414Z,100107.86
2019-04-23T22:15:54.699Z,100101.95
2019-04-23T22:18:06.801Z,100100.94
2019-04-23T22:20:44.198Z,100100.30
2019-04-23T22:25:42.014Z,100091.08
2019-04-23T22:28:05.416Z,100090.89
2019-04-23T22:30:31.452Z,100083.78
2019-04-23T22:33:09.468Z,100084.63
2019-04-23T22:35:37.972Z,100083.84
2019-04-23T22:38:02.391Z,100083.89
2019-04-23T22:40:10.417Z,100076.52
2019-04-23T22:43:01.274Z,100081.29
2019-04-23T22:45:27.173Z,100074.87
2019-04-23T22:47:39.401Z,100074.77
2019-04-23T22:50:06.178Z,100079.63
2019-04-23T22:52:40.676Z,100051.48
2019-04-23T22:55:14.006Z,100073.27
2019-04-23T22:57:56.014Z,100065.45
2019-04-23T23:02:54.567Z,100058.41
2019-04-23T23:07:47.175Z,100042.86
2019-04-23T23:10:12.902Z,100048.62
2019-04-23T23:12:49.155Z,100044.56
2019-04-23T23:15:10.265Z,100051.83
2019-04-23T23:17:31.011Z,100038.59
2019-04-23T23:20:11.746Z,100041.20
2019-04-23T23:22:28.113Z,100042.25
2019-04-23T23:24:55.941Z,100037.98
2019-04-23T23:27:23.731Z,100038.14
2019-04-23T23:30:00.019Z,100036.78
2019-04-23T23:32:23.096Z,100033.92
2019-04-23T23:35:05.875Z,100027.00
2019-04-23T23:39:51.506Z,100027.91
2019-04-23T23:42:11.199Z,100029.27
2019-04-23T23:44:47.912Z,100031.88
2019-04-23T23:47:10.568Z,100031.88
2019-04-23T23:49:33.868Z,100029.56
2019-04-23T23:51:57.338Z,100029.41
2019-04-23T23:54:17.639Z,100026.70
2019-04-23T23:57:09.166Z,100026.70
